Etusivu
METAR-TAF:

METAR-TAF

Lentoasemat :

Georgetown, Ascension

Leveyspiiri: 07-58S, Pituuspiiri: 014-24W, korkeus merenpinnasta: 86 m

Tämänhetkinen sää

Tämä raportti tehtiin 10 tuntia ja 8 minuuttia sitten, kello 20.50 UTC
Tuuli 15 kn etelästä/kaakosta
Lämpötila 25°C
Kosteus 79%
Ilmanpaine 1013 hPa
Näkyvyys 10 km tai enemmän
Muutamia pilviä 1600 ft:n korkeudessa

METAR: FHAW 192050Z 15015KT 9999 FEW016 25/21 Q1013 BLU

Aika: 06:58 (06:58 UTC)


TAF: puuttuu

Säähavainnot ja -ennusteet yli 4000 lentoasemalta (METAR- ja TAF-raportit).

Käytössä olevat sääasemat on merkitty karttaan keltaisilla ja punaisilla pisteillä.

Aseta hiiri pisteen päälle nähdäksesi sääaseman nimen.

Klikkaa sitten nähdäksesi säähavainnot ja -ennusteet.

Kartan vaihtaminen: klikkaa mustalla rastilla varustettuja vihreitä pisteitä, niin voit zoomata sisään; viivalla varustettua vihreää pistettä, niin voit zoomata ulos tai vihreitä nuolia, niin pääset viereisille kartoille.


METAR-TAF: